Time;durP1;ratioP1;P1;durP2;ratioP2;P2;SDS_P1;SDS_P2;PMS_P1;PMS_P2;Temp;Humidity;BMP_temperature;BMP_pressure;BME280_temperature;BME280_humidity;BME280_pressure;Samples;Min_cycle;Max_cycle;Signal;HPM_P1;HPM_P2
2023/02/09 00:02:06;;;;;;;8.93;5.65;;;9.70;76.30;;;;;;6129182;23;20017;-83
2023/02/09 00:04:33;;;;;;;9.52;5.85;;;9.70;76.30;;;;;;6103868;23;20007;-84
2023/02/09 00:07:00;;;;;;;9.15;5.93;;;9.70;76.30;;;;;;6100649;23;20413;-84
2023/02/09 00:09:26;;;;;;;9.27;5.97;;;9.70;76.20;;;;;;6100183;23;20006;-84
2023/02/09 00:14:35;;;;;;;9.00;5.72;;;9.70;76.20;;;;;;6129448;23;20610;-84
2023/02/09 00:17:02;;;;;;;9.70;5.80;;;9.70;76.20;;;;;;6129579;23;20002;-84
2023/02/09 00:19:28;;;;;;;9.32;5.72;;;9.60;76.20;;;;;;6103835;23;20037;-84
2023/02/09 00:21:53;;;;;;;9.10;5.68;;;9.70;76.20;;;;;;6103077;23;20009;-85
2023/02/09 00:24:19;;;;;;;9.63;5.90;;;9.70;76.20;;;;;;6103645;23;20021;-84
2023/02/09 00:26:44;;;;;;;8.68;5.47;;;9.70;76.20;;;;;;6102827;23;20009;-84
2023/02/09 00:29:11;;;;;;;7.90;5.50;;;9.70;76.30;;;;;;6103113;23;20010;-84
2023/02/09 00:31:36;;;;;;;9.57;6.03;;;9.70;76.20;;;;;;6102952;23;20006;-84
2023/02/09 00:34:02;;;;;;;9.10;5.75;;;9.70;76.20;;;;;;6128447;23;20429;-84
2023/02/09 00:36:28;;;;;;;9.43;5.80;;;9.70;76.20;;;;;;6102359;23;20010;-84
2023/02/09 00:38:54;;;;;;;8.68;5.90;;;9.70;76.20;;;;;;6099968;23;20449;-83
2023/02/09 00:42:04;;;;;;;9.25;5.70;;;9.70;76.20;;;;;;6100588;23;19994;-84
2023/02/09 00:44:05;;;;;;;8.70;5.85;;;9.70;76.20;;;;;;6126513;23;20021;-84
2023/02/09 00:46:30;;;;;;;9.05;5.70;;;9.70;76.20;;;;;;6126890;23;20440;-84
2023/02/09 00:48:56;;;;;;;10.52;6.32;;;9.70;76.20;;;;;;6101076;23;20006;-85
2023/02/09 00:51:21;;;;;;;8.65;5.68;;;9.60;76.10;;;;;;6100975;23;20032;-84
2023/02/09 00:53:47;;;;;;;9.27;6.07;;;9.70;76.20;;;;;;6125605;23;20049;-84
2023/02/09 00:56:12;;;;;;;9.52;6.00;;;9.60;76.10;;;;;;6100617;23;20002;-84
2023/02/09 00:58:38;;;;;;;8.15;5.40;;;9.70;76.20;;;;;;6128837;23;20010;-85
2023/02/09 01:01:03;;;;;;;9.25;5.82;;;9.60;76.10;;;;;;6102930;23;20000;-85
2023/02/09 01:03:29;;;;;;;9.27;5.88;;;9.60;76.20;;;;;;6129645;23;20032;-84
2023/02/09 01:05:57;;;;;;;9.77;5.95;;;9.60;76.20;;;;;;6103535;23;20006;-85
2023/02/09 01:08:22;;;;;;;9.05;5.53;;;9.60;76.10;;;;;;6129189;23;20025;-84
2023/02/09 01:10:48;;;;;;;8.88;5.50;;;9.60;76.20;;;;;;6102003;23;20169;-85
2023/02/09 01:13:13;;;;;;;9.77;6.20;;;9.70;76.10;;;;;;6103547;23;20006;-84
2023/02/09 01:15:39;;;;;;;9.65;6.10;;;9.60;76.10;;;;;;6101900;23;20017;-85
2023/02/09 01:18:06;;;;;;;9.70;6.45;;;9.60;76.10;;;;;;6101953;23;20002;-84
2023/02/09 01:20:32;;;;;;;8.55;5.95;;;9.60;76.20;;;;;;6126914;23;20425;-84
2023/02/09 01:22:58;;;;;;;13.95;6.22;;;9.60;76.10;;;;;;6102003;23;20006;-84
2023/02/09 01:25:23;;;;;;;8.93;5.80;;;9.70;76.20;;;;;;6101709;23;20006;-83
2023/02/09 01:27:49;;;;;;;9.38;6.03;;;9.60;76.10;;;;;;6101650;23;20463;-84
2023/02/09 01:30:15;;;;;;;9.57;6.15;;;9.60;76.10;;;;;;6101743;23;20500;-85
2023/02/09 01:32:41;;;;;;;10.05;6.53;;;9.60;76.10;;;;;;6127436;23;20080;-83
2023/02/09 01:35:07;;;;;;;10.35;6.47;;;9.60;76.10;;;;;;6101813;23;20009;-83
2023/02/09 01:37:34;;;;;;;9.55;6.07;;;9.60;76.10;;;;;;6060581;23;1015777;-83
2023/02/09 01:40:00;;;;;;;9.30;5.88;;;9.60;76.10;;;;;;6101954;23;20017;-84
2023/02/09 01:42:26;;;;;;;9.40;5.85;;;9.60;76.20;;;;;;6102054;23;20010;-83
2023/02/09 01:45:07;;;;;;;9.90;6.38;;;9.60;76.20;;;;;;6127782;23;20112;-83
2023/02/09 01:47:42;;;;;;;10.35;6.50;;;9.60;76.20;;;;;;6101921;23;20098;-83
2023/02/09 01:50:08;;;;;;;8.85;5.60;;;9.60;76.20;;;;;;6101531;23;20341;-83
2023/02/09 01:52:34;;;;;;;9.45;6.22;;;9.60;76.10;;;;;;6101658;23;20002;-84
2023/02/09 01:55:04;;;;;;;9.68;6.20;;;9.60;76.20;;;;;;6101210;23;20404;-84
2023/02/09 01:57:34;;;;;;;10.73;6.45;;;9.60;76.10;;;;;;6101490;23;20006;-85
2023/02/09 02:00:06;;;;;;;9.65;6.35;;;9.60;76.10;;;;;;6103491;23;20207;-84
2023/02/09 02:02:32;;;;;;;9.20;5.93;;;9.60;76.10;;;;;;6103404;23;20002;-84
2023/02/09 02:04:58;;;;;;;9.30;6.15;;;9.70;76.10;;;;;;6101079;23;20440;-82
2023/02/09 02:07:45;;;;;;;9.57;5.70;;;9.60;76.00;;;;;;6101676;23;20067;-84
2023/02/09 02:10:11;;;;;;;9.30;5.95;;;9.60;76.00;;;;;;6102176;23;20010;-83
2023/02/09 02:12:37;;;;;;;9.75;6.15;;;9.60;76.00;;;;;;6127398;23;20002;-83
2023/02/09 02:15:03;;;;;;;9.77;6.10;;;9.60;76.00;;;;;;6100922;23;20092;-83
2023/02/09 02:17:36;;;;;;;9.82;5.90;;;9.60;76.10;;;;;;6099858;23;20010;-83
2023/02/09 02:20:39;;;;;;;9.35;5.90;;;9.60;76.00;;;;;;6126532;23;20002;-84
2023/02/09 02:23:32;;;;;;;9.68;6.15;;;9.60;76.10;;;;;;6126661;23;20002;-83
2023/02/09 02:26:44;;;;;;;9.10;5.90;;;9.60;76.10;;;;;;6100485;23;20326;-84
2023/02/09 02:29:28;;;;;;;9.43;5.82;;;9.60;76.00;;;;;;6118378;23;20014;-84
2023/02/09 02:32:08;;;;;;;8.65;5.50;;;9.60;76.00;;;;;;6127119;23;20002;-84
2023/02/09 02:34:44;;;;;;;8.15;5.45;;;9.60;76.00;;;;;;6100345;23;20364;-84
2023/02/09 02:37:29;;;;;;;8.85;5.43;;;9.60;76.00;;;;;;6100169;23;20010;-84
2023/02/09 02:40:04;;;;;;;9.13;5.60;;;9.60;76.00;;;;;;6105423;23;20348;-83
2023/02/09 02:42:52;;;;;;;9.55;6.07;;;9.60;76.00;;;;;;6102155;23;20093;-84
2023/02/09 02:45:30;;;;;;;8.95;5.78;;;9.60;76.00;;;;;;6126098;23;20002;-82
2023/02/09 02:48:21;;;;;;;9.77;5.75;;;9.60;76.00;;;;;;6126306;23;20009;-83
2023/02/09 02:50:54;;;;;;;9.95;5.72;;;9.60;76.00;;;;;;6099956;23;20006;-83
2023/02/09 02:53:25;;;;;;;8.35;5.22;;;9.60;76.00;;;;;;6126598;23;20036;-83
2023/02/09 02:55:53;;;;;;;8.77;5.43;;;9.60;76.00;;;;;;6099008;23;20495;-84
2023/02/09 02:58:21;;;;;;;9.30;5.88;;;9.60;76.00;;;;;;6127584;23;20230;-84
2023/02/09 03:00:50;;;;;;;9.27;5.72;;;9.60;75.90;;;;;;6103576;23;20429;-84
2023/02/09 03:03:20;;;;;;;9.30;5.57;;;9.60;75.90;;;;;;6127195;23;20424;-84
2023/02/09 03:05:47;;;;;;;9.63;6.10;;;9.60;75.90;;;;;;6098292;23;20028;-83
2023/02/09 03:08:13;;;;;;;9.50;5.90;;;9.60;75.90;;;;;;6100537;23;20006;-85
2023/02/09 03:10:40;;;;;;;9.10;5.25;;;9.60;76.00;;;;;;6130424;23;20012;-84
2023/02/09 03:13:33;;;;;;;9.52;5.85;;;9.50;75.90;;;;;;6102618;23;20010;-83
2023/02/09 03:16:19;;;;;;;8.98;5.50;;;9.50;76.00;;;;;;6101528;23;20441;-83
2023/02/09 03:19:01;;;;;;;9.88;5.68;;;9.60;76.10;;;;;;6128313;23;20036;-84
2023/02/09 03:21:44;;;;;;;8.93;5.63;;;9.50;75.90;;;;;;6127529;23;20036;-84
2023/02/09 03:24:20;;;;;;;9.35;5.68;;;9.50;75.90;;;;;;6104928;23;20028;-84
2023/02/09 03:26:50;;;;;;;8.65;5.70;;;9.60;75.90;;;;;;6103845;23;20069;-85
2023/02/09 03:29:18;;;;;;;9.57;5.68;;;9.50;75.90;;;;;;6129914;23;20006;-84
2023/02/09 03:31:45;;;;;;;8.40;5.20;;;9.50;75.90;;;;;;6103710;23;20016;-84
2023/02/09 03:34:11;;;;;;;9.13;5.45;;;9.50;75.90;;;;;;6127938;23;20012;-84
2023/02/09 03:36:38;;;;;;;8.35;5.68;;;9.60;76.00;;;;;;6103306;23;20326;-84
2023/02/09 03:39:04;;;;;;;8.00;5.32;;;9.50;76.00;;;;;;6103118;23;20443;-83
2023/02/09 03:41:30;;;;;;;8.85;5.60;;;9.50;76.00;;;;;;6102779;23;20006;-85
2023/02/09 03:46:40;;;;;;;8.25;5.43;;;9.60;76.00;;;;;;6128479;23;20017;-84
2023/02/09 03:49:05;;;;;;;8.70;5.40;;;9.50;76.00;;;;;;6102756;23;20013;-83
2023/02/09 03:51:31;;;;;;;8.63;5.45;;;9.50;76.10;;;;;;6102028;23;20084;-83
2023/02/09 03:53:57;;;;;;;9.05;5.78;;;9.50;76.00;;;;;;6126098;23;20010;-85
2023/02/09 03:56:23;;;;;;;8.75;5.20;;;9.50;76.00;;;;;;6102130;23;20475;-83
2023/02/09 03:58:49;;;;;;;8.85;5.50;;;9.60;76.00;;;;;;6101314;23;20014;-83
2023/02/09 04:01:15;;;;;;;8.48;5.40;;;9.50;76.00;;;;;;6103151;23;20044;-83
2023/02/09 04:03:40;;;;;;;8.60;5.40;;;9.50;76.00;;;;;;6127515;23;20025;-85
2023/02/09 04:06:06;;;;;;;8.63;5.47;;;9.50;76.10;;;;;;6129148;23;20006;-83
2023/02/09 04:08:32;;;;;;;8.75;5.35;;;9.50;76.10;;;;;;6129654;23;20452;-84
2023/02/09 04:10:58;;;;;;;9.20;5.50;;;9.50;76.00;;;;;;6128409;23;20093;-84
2023/02/09 04:13:24;;;;;;;8.80;5.20;;;9.50;76.00;;;;;;6129911;23;20045;-84
2023/02/09 04:15:50;;;;;;;8.63;5.40;;;9.50;76.10;;;;;;6129358;23;20403;-84
2023/02/09 04:18:15;;;;;;;8.85;5.32;;;9.50;76.20;;;;;;6103969;23;19997;-84
2023/02/09 04:20:41;;;;;;;8.30;5.28;;;9.50;76.70;;;;;;6128815;23;20349;-84
2023/02/09 04:23:06;;;;;;;7.55;5.13;;;9.50;76.10;;;;;;6130444;23;20075;-84
2023/02/09 04:25:32;;;;;;;8.48;5.20;;;9.50;76.10;;;;;;6103848;23;20002;-83
2023/02/09 04:27:57;;;;;;;8.65;5.25;;;9.50;76.00;;;;;;6103581;23;20459;-84
2023/02/09 04:30:23;;;;;;;8.38;5.30;;;9.50;76.10;;;;;;6103300;23;20006;-84
2023/02/09 04:32:48;;;;;;;8.18;5.07;;;9.50;76.00;;;;;;6103484;23;20101;-84
2023/02/09 04:35:14;;;;;;;8.55;5.53;;;9.50;76.10;;;;;;6129089;23;20005;-84
2023/02/09 04:37:39;;;;;;;8.23;4.88;;;9.50;76.00;;;;;;6103020;23;20006;-83
2023/02/09 04:40:05;;;;;;;8.63;5.15;;;9.50;76.00;;;;;;6103403;23;20685;-84
2023/02/09 04:42:31;;;;;;;8.93;5.50;;;9.50;76.10;;;;;;6103428;23;20006;-84
2023/02/09 04:44:56;;;;;;;8.80;5.40;;;9.50;76.20;;;;;;6102315;23;20002;-83
2023/02/09 04:47:22;;;;;;;7.90;4.93;;;9.50;76.20;;;;;;6102922;23;20044;-84
2023/02/09 04:49:47;;;;;;;7.93;5.13;;;9.50;76.20;;;;;;6104272;23;20006;-84
2023/02/09 04:52:13;;;;;;;7.75;4.68;;;9.50;76.20;;;;;;6129867;23;20006;-84
2023/02/09 04:54:38;;;;;;;8.13;5.05;;;9.50;76.20;;;;;;6102867;23;20425;-84
2023/02/09 04:59:48;;;;;;;8.02;4.85;;;9.50;76.10;;;;;;6122683;23;20056;-83
2023/02/09 05:02:13;;;;;;;8.32;5.20;;;9.40;76.00;;;;;;6121742;23;20006;-80
2023/02/09 05:04:39;;;;;;;8.50;5.00;;;9.50;76.10;;;;;;6095057;23;20006;-84
2023/02/09 05:07:04;;;;;;;7.88;5.13;;;9.50;76.60;;;;;;6115015;23;20017;-83
2023/02/09 05:09:30;;;;;;;8.82;5.53;;;9.50;76.10;;;;;;6120896;23;20010;-83
2023/02/09 05:11:55;;;;;;;7.10;4.53;;;9.50;76.00;;;;;;6095951;23;20038;-85
2023/02/09 05:14:21;;;;;;;8.30;5.10;;;9.50;76.00;;;;;;6120303;23;20068;-82
2023/02/09 05:16:46;;;;;;;9.13;5.82;;;9.50;76.00;;;;;;6119321;23;20520;-82
2023/02/09 05:19:12;;;;;;;8.27;4.97;;;9.50;76.00;;;;;;6121381;23;20085;-81
2023/02/09 05:21:37;;;;;;;8.60;5.25;;;9.50;76.00;;;;;;6119110;23;20529;-78
2023/02/09 05:24:03;;;;;;;8.13;5.22;;;9.50;76.00;;;;;;6118937;23;20012;-81
2023/02/09 05:26:29;;;;;;;8.20;4.82;;;9.50;75.90;;;;;;6119129;23;20045;-81
2023/02/09 05:28:54;;;;;;;9.00;5.50;;;9.50;75.80;;;;;;6093255;23;20010;-82
2023/02/09 05:31:20;;;;;;;7.53;4.97;;;9.50;75.70;;;;;;6095236;23;20006;-80
2023/02/09 05:33:45;;;;;;;9.13;5.68;;;9.50;75.70;;;;;;6096089;23;20088;-83
2023/02/09 05:36:11;;;;;;;9.02;5.57;;;9.50;75.80;;;;;;6121788;23;20072;-86
2023/02/09 05:38:37;;;;;;;8.50;5.03;;;9.50;75.70;;;;;;6095714;23;20034;-81
2023/02/09 05:42:14;;;;;;;8.15;4.97;;;9.50;75.70;;;;;;6095758;23;20429;-80
2023/02/09 05:44:01;;;;;;;8.85;5.60;;;9.50;75.70;;;;;;6121246;23;20068;-84
2023/02/09 05:46:26;;;;;;;8.88;5.15;;;9.50;75.80;;;;;;6097550;23;20089;-82
2023/02/09 05:48:52;;;;;;;8.18;5.10;;;9.50;75.80;;;;;;6095122;23;20029;-83
2023/02/09 05:51:17;;;;;;;9.80;5.60;;;9.40;75.70;;;;;;6094932;23;20005;-82
2023/02/09 05:53:43;;;;;;;8.77;5.30;;;9.40;75.70;;;;;;6093361;23;20152;-80
2023/02/09 05:56:08;;;;;;;9.68;5.40;;;9.50;75.90;;;;;;6093160;23;20008;-82
2023/02/09 05:58:34;;;;;;;7.90;4.80;;;9.50;75.90;;;;;;6093712;23;20006;-79
2023/02/09 06:00:59;;;;;;;9.07;5.55;;;9.50;75.90;;;;;;6117388;23;20495;-80
2023/02/09 06:03:25;;;;;;;9.07;5.53;;;9.50;75.90;;;;;;6094937;23;20012;-81
2023/02/09 06:05:50;;;;;;;9.50;5.22;;;9.50;75.90;;;;;;6094777;23;20005;-81
2023/02/09 06:08:16;;;;;;;8.88;5.85;;;9.50;76.00;;;;;;6094459;23;20010;-81
2023/02/09 06:10:41;;;;;;;8.70;5.35;;;9.40;75.90;;;;;;6092681;23;20006;-84
2023/02/09 06:13:07;;;;;;;8.18;4.90;;;9.40;76.40;;;;;;6098932;23;20010;-81
2023/02/09 06:15:32;;;;;;;10.45;5.60;;;9.40;75.80;;;;;;6093195;23;20006;-80
2023/02/09 06:17:58;;;;;;;8.93;5.50;;;9.40;75.60;;;;;;6092273;23;20060;-81
2023/02/09 06:20:23;;;;;;;8.82;5.45;;;9.50;75.60;;;;;;6092258;23;20047;-81
2023/02/09 06:22:49;;;;;;;8.30;5.28;;;9.40;75.50;;;;;;6091949;23;20017;-82
2023/02/09 06:25:14;;;;;;;8.57;5.22;;;9.40;75.60;;;;;;6091125;23;20013;-87
2023/02/09 06:27:39;;;;;;;8.73;5.72;;;9.40;75.60;;;;;;6091933;23;20005;-80
2023/02/09 06:30:05;;;;;;;9.45;5.10;;;9.40;75.70;;;;;;6121992;23;20006;-84
2023/02/09 06:32:31;;;;;;;8.40;5.13;;;9.40;75.60;;;;;;6121499;23;20013;-85
2023/02/09 06:34:56;;;;;;;9.05;5.55;;;9.40;75.80;;;;;;6104464;23;20002;-85
2023/02/09 06:37:22;;;;;;;8.73;5.53;;;9.40;75.60;;;;;;6094063;23;20013;-81
2023/02/09 06:39:47;;;;;;;8.30;5.38;;;9.40;75.70;;;;;;6119443;23;20006;-82
2023/02/09 06:42:13;;;;;;;9.00;5.30;;;9.40;75.80;;;;;;6093401;23;20025;-84
2023/02/09 06:44:38;;;;;;;8.85;5.63;;;9.40;75.80;;;;;;6119420;23;20085;-81
2023/02/09 06:47:04;;;;;;;9.60;5.90;;;9.40;75.80;;;;;;6091159;23;20079;-82
2023/02/09 06:49:29;;;;;;;9.13;5.70;;;9.40;75.60;;;;;;6116635;23;20040;-83
2023/02/09 06:51:55;;;;;;;8.48;5.47;;;9.40;75.80;;;;;;6090189;23;20010;-82
2023/02/09 06:54:21;;;;;;;9.27;5.85;;;9.40;75.80;;;;;;6092299;23;20452;-81
2023/02/09 06:56:47;;;;;;;9.23;5.25;;;9.40;75.80;;;;;;6092872;23;20032;-84
2023/02/09 06:59:13;;;;;;;8.18;5.07;;;9.40;75.80;;;;;;6092994;23;20006;-83
2023/02/09 07:01:38;;;;;;;9.23;5.80;;;9.40;75.70;;;;;;6115986;23;20348;-80
2023/02/09 07:04:04;;;;;;;9.18;5.93;;;9.40;75.70;;;;;;6087994;23;20013;-78
2023/02/09 07:06:29;;;;;;;8.70;5.50;;;9.40;75.70;;;;;;6085741;23;20009;-80
2023/02/09 07:08:55;;;;;;;9.05;5.35;;;9.40;75.80;;;;;;6112488;23;20010;-80
2023/02/09 07:11:20;;;;;;;10.13;5.70;;;9.50;75.70;;;;;;6090427;23;20066;-81
2023/02/09 07:13:46;;;;;;;8.60;5.40;;;9.50;75.70;;;;;;6090863;23;20189;-79
2023/02/09 07:16:13;;;;;;;9.18;5.82;;;9.50;75.70;;;;;;6090019;23;20010;-78
2023/02/09 07:18:39;;;;;;;9.32;5.90;;;9.50;75.70;;;;;;6087863;23;20010;-77
2023/02/09 07:21:10;;;;;;;8.23;5.30;;;9.50;75.60;;;;;;6124582;23;20340;-81
2023/02/09 07:23:36;;;;;;;9.23;5.78;;;9.50;75.50;;;;;;6093895;23;20002;-81
2023/02/09 07:26:07;;;;;;;9.45;5.93;;;9.60;75.30;;;;;;6095253;23;20010;-81
2023/02/09 07:28:34;;;;;;;8.52;5.05;;;9.60;75.30;;;;;;6119475;23;20010;-83
2023/02/09 07:31:08;;;;;;;8.55;5.40;;;9.60;75.20;;;;;;6119148;23;20014;-84
2023/02/09 07:33:34;;;;;;;8.63;5.35;;;9.60;75.10;;;;;;6119010;23;20589;-82
2023/02/09 07:36:05;;;;;;;8.57;5.20;;;9.60;75.00;;;;;;6090531;23;20014;-84
2023/02/09 07:38:31;;;;;;;8.57;5.10;;;9.60;75.00;;;;;;6090300;23;20356;-83
2023/02/09 07:41:02;;;;;;;8.88;5.72;;;9.60;74.90;;;;;;6119026;23;20077;-81
2023/02/09 07:43:28;;;;;;;8.38;5.47;;;9.60;74.80;;;;;;6091667;23;20013;-84
2023/02/09 07:46:02;;;;;;;8.45;5.57;;;9.60;74.90;;;;;;6090940;23;20006;-83
2023/02/09 07:48:28;;;;;;;8.90;5.25;;;9.60;74.80;;;;;;6090879;23;20014;-83
2023/02/09 07:50:54;;;;;;;8.32;5.00;;;9.70;74.80;;;;;;6091189;23;20014;-82
2023/02/09 07:53:20;;;;;;;8.60;5.43;;;9.70;74.70;;;;;;6117664;23;20600;-82
2023/02/09 07:55:45;;;;;;;10.02;5.57;;;9.70;74.70;;;;;;6091721;23;20010;-81
2023/02/09 07:58:11;;;;;;;8.82;5.50;;;9.70;74.60;;;;;;6092109;23;20017;-81
2023/02/09 08:00:36;;;;;;;8.45;5.53;;;9.70;74.60;;;;;;6116116;23;20002;-83
2023/02/09 08:03:04;;;;;;;8.75;5.65;;;9.70;74.20;;;;;;6118003;23;20010;-83
2023/02/09 08:05:34;;;;;;;9.43;5.53;;;9.80;74.30;;;;;;6091425;23;20093;-83
2023/02/09 08:08:00;;;;;;;9.07;5.60;;;9.80;74.30;;;;;;6117462;23;20008;-83
2023/02/09 08:10:26;;;;;;;10.50;6.18;;;9.80;74.20;;;;;;6091576;23;20005;-84
2023/02/09 08:12:59;;;;;;;8.40;5.00;;;9.80;74.30;;;;;;6090928;23;20073;-83
2023/02/09 08:15:43;;;;;;;8.02;5.05;;;9.80;74.30;;;;;;6117457;23;20009;-82
2023/02/09 08:18:19;;;;;;;8.23;5.57;;;9.80;74.30;;;;;;6091027;23;20412;-80
2023/02/09 08:20:46;;;;;;;8.73;5.40;;;9.80;74.30;;;;;;6091005;23;20441;-81
2023/02/09 08:23:18;;;;;;;9.07;5.50;;;9.80;74.30;;;;;;6090674;23;20006;-80
2023/02/09 08:25:45;;;;;;;8.73;5.60;;;9.90;74.40;;;;;;6090722;23;20026;-80
2023/02/09 08:28:11;;;;;;;8.93;5.45;;;9.90;74.50;;;;;;6114525;23;20432;-82
2023/02/09 08:30:37;;;;;;;10.38;5.38;;;9.90;74.50;;;;;;6091976;23;20084;-82
2023/02/09 08:33:02;;;;;;;8.50;5.20;;;9.90;74.50;;;;;;6092283;23;20021;-82
2023/02/09 08:35:28;;;;;;;8.45;5.35;;;9.80;74.60;;;;;;6090726;23;20480;-80
2023/02/09 08:37:57;;;;;;;9.82;5.50;;;9.90;74.70;;;;;;6090483;23;20017;-81
2023/02/09 08:40:23;;;;;;;8.10;5.25;;;9.90;74.60;;;;;;6090519;23;20344;-81
2023/02/09 08:42:48;;;;;;;8.55;5.28;;;9.90;74.70;;;;;;6117038;23;20002;-84
2023/02/09 08:45:14;;;;;;;8.65;5.50;;;9.90;74.70;;;;;;6089876;23;20036;-80
2023/02/09 08:47:39;;;;;;;8.93;5.45;;;9.90;74.70;;;;;;6116862;23;20151;-81
2023/02/09 08:50:05;;;;;;;8.20;5.10;;;9.90;74.70;;;;;;6090357;23;20091;-83
2023/02/09 08:52:31;;;;;;;8.70;5.63;;;9.90;74.60;;;;;;6116374;23;20103;-84
2023/02/09 08:54:56;;;;;;;8.07;4.93;;;10.00;74.50;;;;;;6117731;23;20006;-84
2023/02/09 08:57:22;;;;;;;8.15;5.30;;;10.00;74.40;;;;;;6116772;23;20458;-82
2023/02/09 08:59:47;;;;;;;8.35;5.18;;;10.00;74.20;;;;;;6089811;23;20010;-82
2023/02/09 09:02:13;;;;;;;8.95;5.13;;;10.10;74.20;;;;;;6089615;23;20013;-83
2023/02/09 09:04:38;;;;;;;8.00;4.72;;;10.10;74.20;;;;;;6092936;23;20002;-83
2023/02/09 09:07:04;;;;;;;8.52;5.35;;;10.20;74.20;;;;;;6119977;23;20081;-83
2023/02/09 09:09:29;;;;;;;8.77;5.25;;;10.20;73.90;;;;;;6118408;23;20013;-82
2023/02/09 09:11:55;;;;;;;8.15;5.10;;;10.20;74.00;;;;;;6117477;23;20006;-83
2023/02/09 09:14:21;;;;;;;8.20;5.05;;;10.20;73.90;;;;;;6090595;23;20101;-82
2023/02/09 09:16:46;;;;;;;8.63;5.10;;;10.30;73.90;;;;;;6116883;23;20017;-83
2023/02/09 09:19:12;;;;;;;8.27;4.80;;;10.30;73.80;;;;;;6090635;23;19998;-82
2023/02/09 09:21:37;;;;;;;7.82;4.93;;;10.30;73.70;;;;;;6089685;23;20017;-83
2023/02/09 09:24:03;;;;;;;8.75;5.40;;;10.30;73.60;;;;;;6089998;23;20089;-83
2023/02/09 09:26:28;;;;;;;8.82;5.47;;;10.30;73.60;;;;;;6115215;23;20017;-81
2023/02/09 09:28:54;;;;;;;9.77;5.22;;;10.30;73.20;;;;;;6114281;23;20013;-83
2023/02/09 09:31:19;;;;;;;8.50;4.97;;;10.30;73.20;;;;;;6116547;23;20512;-81
2023/02/09 09:33:45;;;;;;;8.10;5.07;;;10.30;73.40;;;;;;6089869;23;20006;-82
2023/02/09 09:36:13;;;;;;;8.77;5.60;;;10.40;73.20;;;;;;6089762;23;20402;-82
2023/02/09 09:38:39;;;;;;;8.38;5.50;;;10.40;73.30;;;;;;6089823;23;20009;-83
2023/02/09 09:41:16;;;;;;;7.93;5.10;;;10.40;73.30;;;;;;6115298;23;20348;-82
2023/02/09 09:43:42;;;;;;;8.40;5.47;;;10.40;73.20;;;;;;6089178;23;20337;-85
2023/02/09 09:46:16;;;;;;;8.07;4.90;;;10.50;73.20;;;;;;6089210;23;20017;-82
2023/02/09 09:48:48;;;;;;;8.73;5.47;;;10.40;73.20;;;;;;6090721;23;20449;-84
2023/02/09 09:51:31;;;;;;;9.18;5.40;;;10.50;73.20;;;;;;6121296;23;20010;-84
2023/02/09 09:54:00;;;;;;;8.32;5.22;;;10.50;73.20;;;;;;6093192;23;20082;-81
2023/02/09 09:56:28;;;;;;;7.95;5.03;;;10.50;73.30;;;;;;6094606;23;20009;-81
2023/02/09 09:58:54;;;;;;;8.73;5.32;;;10.50;73.30;;;;;;6092612;23;20010;-84
2023/02/09 10:01:20;;;;;;;8.30;5.03;;;10.50;73.40;;;;;;6092939;23;20016;-84
2023/02/09 10:03:45;;;;;;;8.32;5.13;;;10.60;73.30;;;;;;6093494;23;20006;-84
2023/02/09 10:06:21;;;;;;;7.82;4.47;;;10.60;73.40;;;;;;6092805;23;20014;-82
2023/02/09 10:09:03;;;;;;;8.05;4.63;;;10.50;73.50;;;;;;6121146;23;20014;-84
2023/02/09 10:11:38;;;;;;;8.02;4.90;;;10.60;73.50;;;;;;6120046;23;20017;-84
2023/02/09 10:14:04;;;;;;;8.05;4.75;;;10.60;73.40;;;;;;6092872;23;20044;-82
2023/02/09 10:16:36;;;;;;;8.38;4.97;;;10.60;73.40;;;;;;6091504;23;20029;-80
2023/02/09 10:19:26;;;;;;;7.85;5.20;;;10.60;73.30;;;;;;6118236;23;20062;-80
2023/02/09 10:21:53;;;;;;;7.32;4.60;;;10.60;73.30;;;;;;6093059;23;20452;-81
2023/02/09 10:24:27;;;;;;;8.95;5.57;;;10.60;73.30;;;;;;6091453;23;20010;-83
2023/02/09 10:27:26;;;;;;;8.32;5.03;;;10.60;73.30;;;;;;6090855;23;20013;-82
2023/02/09 10:29:52;;;;;;;8.52;5.28;;;10.60;73.30;;;;;;6096303;23;20352;-86
2023/02/09 10:32:47;;;;;;;8.27;5.18;;;10.60;73.30;;;;;;6117041;23;20005;-84
2023/02/09 10:35:26;;;;;;;7.70;4.70;;;10.60;73.30;;;;;;6123034;23;20079;-81
2023/02/09 10:38:00;;;;;;;7.97;5.28;;;10.60;73.30;;;;;;6116044;23;20412;-84
2023/02/09 10:40:29;;;;;;;8.38;5.18;;;10.60;73.30;;;;;;6092878;23;20010;-83
2023/02/09 10:42:56;;;;;;;7.68;4.80;;;10.70;73.40;;;;;;6092654;23;20017;-83
2023/02/09 10:45:28;;;;;;;7.72;4.88;;;10.70;73.40;;;;;;6119135;23;20006;-82
2023/02/09 10:48:07;;;;;;;8.13;4.97;;;10.60;73.30;;;;;;6093692;23;20432;-81
2023/02/09 10:50:33;;;;;;;8.60;5.63;;;10.70;73.80;;;;;;6092776;23;20006;-82
2023/02/09 10:53:01;;;;;;;7.93;4.95;;;10.70;73.30;;;;;;6093019;23;20097;-82
2023/02/09 10:55:40;;;;;;;7.95;4.75;;;10.70;73.20;;;;;;6092222;23;20014;-82
2023/02/09 10:58:28;;;;;;;8.98;5.47;;;10.70;73.20;;;;;;6092328;23;20087;-82
2023/02/09 11:00:59;;;;;;;8.32;5.30;;;10.70;73.20;;;;;;6092289;23;19998;-82
2023/02/09 11:03:25;;;;;;;7.87;5.37;;;10.80;73.10;;;;;;6093002;23;20010;-81
2023/02/09 11:06:18;;;;;;;8.35;5.07;;;10.70;73.10;;;;;;6093085;23;20984;-81
2023/02/09 11:09:13;;;;;;;7.68;4.70;;;10.80;73.20;;;;;;6118059;23;20054;-83
2023/02/09 11:11:41;;;;;;;8.30;5.00;;;10.70;73.20;;;;;;6092123;23;20340;-84
2023/02/09 11:14:13;;;;;;;8.35;5.22;;;10.80;73.20;;;;;;6093775;23;20006;-83
2023/02/09 11:17:01;;;;;;;8.25;5.03;;;10.80;73.20;;;;;;6118800;23;20010;-83
2023/02/09 11:20:02;;;;;;;9.27;5.20;;;10.80;73.30;;;;;;6091368;23;20473;-83
2023/02/09 11:22:41;;;;;;;8.35;5.32;;;10.80;73.40;;;;;;6091205;23;20006;-82
2023/02/09 11:25:28;;;;;;;8.93;5.60;;;10.80;73.30;;;;;;6092928;23;20053;-81
2023/02/09 11:28:21;;;;;;;8.52;5.13;;;10.80;73.30;;;;;;6118862;23;20009;-82
2023/02/09 11:31:17;;;;;;;8.52;5.32;;;10.80;73.30;;;;;;6090612;23;20014;-83
2023/02/09 11:34:02;;;;;;;8.43;5.25;;;10.80;73.30;;;;;;6090983;23;20323;-81
2023/02/09 11:36:47;;;;;;;8.57;5.47;;;10.80;73.30;;;;;;6116151;23;20357;-82
2023/02/09 11:39:20;;;;;;;9.02;5.50;;;10.80;73.40;;;;;;6090343;23;20717;-83
2023/02/09 11:44:45;;;;;;;8.35;5.35;;;10.80;73.40;;;;;;6120591;23;20452;-84
2023/02/09 11:47:16;;;;;;;8.77;5.68;;;10.80;73.40;;;;;;6118561;23;20005;-83
2023/02/09 11:49:49;;;;;;;8.68;5.22;;;10.80;73.40;;;;;;6090843;23;20016;-83
2023/02/09 11:52:21;;;;;;;9.40;5.90;;;10.80;73.50;;;;;;6090289;23;20172;-80
2023/02/09 11:54:51;;;;;;;8.60;5.03;;;10.80;73.50;;;;;;6116070;23;20420;-84
2023/02/09 11:57:33;;;;;;;8.48;5.47;;;10.80;73.50;;;;;;6115238;23;20128;-82
2023/02/09 12:00:02;;;;;;;8.80;5.10;;;10.80;73.40;;;;;;6089727;23;20056;-83
2023/02/09 12:03:00;;;;;;;8.75;5.35;;;10.80;73.30;;;;;;6093273;23;20009;-81
2023/02/09 12:05:26;;;;;;;8.52;5.38;;;10.80;73.20;;;;;;6117740;23;20004;-83
2023/02/09 12:08:12;;;;;;;7.78;5.20;;;10.90;73.30;;;;;;6090133;23;20010;-82
2023/02/09 12:10:48;;;;;;;8.65;5.25;;;10.90;73.20;;;;;;6089949;23;20040;-82
2023/02/09 12:13:38;;;;;;;9.13;5.93;;;10.90;73.30;;;;;;6089253;23;20017;-82
2023/02/09 12:16:11;;;;;;;;;;;10.90;73.20;;;;;;6089859;23;20440;-81
2023/02/09 12:18:39;;;;;;;8.55;5.28;;;10.90;73.30;;;;;;6089718;23;19908;-82
2023/02/09 12:21:06;;;;;;;9.45;6.18;;;10.90;73.30;;;;;;6089101;23;20076;-83
2023/02/09 12:23:37;;;;;;;8.30;5.07;;;10.90;73.20;;;;;;6117963;23;20006;-82
2023/02/09 12:26:15;;;;;;;8.98;5.63;;;10.90;73.40;;;;;;6090017;23;20255;-82
2023/02/09 12:28:52;;;;;;;8.68;5.60;;;10.90;73.30;;;;;;6089602;23;20006;-83
2023/02/09 12:31:25;;;;;;;8.95;5.40;;;10.90;73.40;;;;;;6089323;23;20014;-83
2023/02/09 12:33:57;;;;;;;8.70;5.60;;;10.80;73.30;;;;;;6089089;23;20014;-82
2023/02/09 12:36:31;;;;;;;8.77;5.53;;;10.80;73.40;;;;;;6117385;23;20013;-84
2023/02/09 12:38:56;;;;;;;8.23;4.97;;;10.80;73.40;;;;;;6117687;23;20042;-83
2023/02/09 12:41:23;;;;;;;8.52;5.28;;;10.80;73.50;;;;;;6118492;23;20002;-82
2023/02/09 12:43:50;;;;;;;8.68;5.30;;;10.80;73.60;;;;;;6117373;23;20006;-84
2023/02/09 12:46:22;;;;;;;8.77;5.70;;;10.80;73.60;;;;;;6090216;23;20063;-83
2023/02/09 12:48:59;;;;;;;;;;;10.80;73.50;;;;;;6116964;23;20511;-81
2023/02/09 12:51:38;;;;;;;8.95;5.45;;;10.80;73.60;;;;;;6090468;23;19904;-81
2023/02/09 12:54:27;;;;;;;8.35;5.13;;;10.80;73.70;;;;;;6094536;23;20068;-83
2023/02/09 12:56:53;;;;;;;8.60;5.18;;;10.70;73.70;;;;;;6090419;23;20033;-83
2023/02/09 12:59:23;;;;;;;9.18;5.70;;;10.70;73.80;;;;;;6090309;23;20013;-82
2023/02/09 13:02:04;;;;;;;9.10;5.78;;;10.70;73.80;;;;;;6091037;23;20448;-81
2023/02/09 13:04:55;;;;;;;8.85;5.47;;;10.70;73.80;;;;;;6095429;23;20453;-81
2023/02/09 13:07:43;;;;;;;9.05;5.85;;;10.70;73.90;;;;;;6116199;23;20006;-81
2023/02/09 13:10:19;;;;;;;9.68;6.00;;;10.70;73.90;;;;;;6092399;23;20010;-82
2023/02/09 13:12:53;;;;;;;9.95;6.40;;;10.70;74.00;;;;;;6093922;23;20056;-82
2023/02/09 13:15:19;;;;;;;8.50;5.38;;;10.70;74.00;;;;;;6119118;23;20036;-82
2023/02/09 13:18:11;;;;;;;8.48;5.40;;;10.70;74.10;;;;;;6094557;23;20009;-81
2023/02/09 13:20:55;;;;;;;8.77;5.70;;;10.70;74.10;;;;;;6093511;23;20027;-82